Time;durP1;ratioP1;P1;durP2;ratioP2;P2;SDS_P1;SDS_P2;PMS_P1;PMS_P2;Temp;Humidity;BMP_temperature;BMP_pressure;BME280_temperature;BME280_humidity;BME280_pressure;Samples;Min_cycle;Max_cycle;Signal;HPM_P1;HPM_P2
2023/08/14 00:01:35;;;;;;;4.43;2.42;;;;;;;20.59;40.47;101204.41;5069251;28;20060;-85
2023/08/14 00:04:04;;;;;;;6.68;2.95;;;;;;;20.55;40.56;101207.72;5082657;28;20519;-85
2023/08/14 00:06:32;;;;;;;6.35;2.55;;;;;;;20.51;40.81;101198.91;5058858;28;20041;-85
2023/08/14 00:09:00;;;;;;;5.90;2.67;;;;;;;20.47;40.69;101203.13;5062285;28;20121;-86
2023/08/14 00:11:28;;;;;;;4.47;2.97;;;;;;;20.45;40.73;101201.59;5055038;28;21504;-86
2023/08/14 00:13:57;;;;;;;6.13;2.80;;;;;;;20.45;40.59;101212.72;5062352;28;20131;-86
2023/08/14 00:16:26;;;;;;;4.53;2.58;;;;;;;20.40;40.61;101208.59;5047522;28;20071;-86
2023/08/14 00:18:56;;;;;;;5.53;2.97;;;;;;;20.42;40.67;101204.75;5062655;28;20056;-86
2023/08/14 00:21:24;;;;;;;5.13;2.60;;;;;;;20.37;40.96;101206.19;5083673;28;20048;-85
2023/08/14 00:23:52;;;;;;;5.38;2.80;;;;;;;20.36;41.11;101198.91;5069331;28;20047;-85
2023/08/14 00:26:20;;;;;;;5.97;2.92;;;;;;;20.35;41.46;101202.75;5059405;28;20439;-86
2023/08/14 00:28:48;;;;;;;3.70;2.33;;;;;;;20.33;41.11;101204.84;5056099;28;20053;-85
2023/08/14 00:31:17;;;;;;;4.07;2.40;;;;;;;20.32;41.25;101200.34;5063712;28;20040;-85
2023/08/14 00:33:45;;;;;;;6.30;2.90;;;;;;;20.30;41.26;101198.78;5065269;28;20040;-85
2023/08/14 00:36:15;;;;;;;4.80;2.67;;;;;;;20.29;41.42;101194.28;5066436;28;20036;-85
2023/08/14 00:38:44;;;;;;;5.22;2.13;;;;;;;20.24;41.04;101194.88;5058328;28;20454;-86
2023/08/14 00:41:11;;;;;;;3.75;2.20;;;;;;;20.23;41.23;101195.91;5075749;28;20093;-85
2023/08/14 00:43:39;;;;;;;4.00;1.90;;;;;;;20.22;40.99;101193.31;5069616;28;20041;-85
2023/08/14 00:46:08;;;;;;;5.00;2.47;;;;;;;20.20;41.18;101210.19;5059846;28;20040;-85
2023/08/14 00:48:36;;;;;;;4.40;1.92;;;;;;;20.19;41.28;101200.16;5066502;28;20039;-86
2023/08/14 00:51:05;;;;;;;4.43;2.50;;;;;;;20.18;41.33;101198.41;5064426;28;20089;-84
2023/08/14 00:53:34;;;;;;;3.65;2.10;;;;;;;20.17;41.37;101193.91;5074183;28;20116;-84
2023/08/14 00:56:03;;;;;;;4.90;2.20;;;;;;;20.13;41.08;101200.88;5060462;28;20044;-84
2023/08/14 00:58:31;;;;;;;4.35;2.55;;;;;;;20.10;41.17;101201.28;5054787;28;20037;-84
2023/08/14 01:01:00;;;;;;;5.53;2.30;;;;;;;20.07;41.55;101193.31;5058708;28;20151;-84
2023/08/14 01:03:29;;;;;;;5.10;2.22;;;;;;;20.06;41.71;101196.25;5063675;28;20063;-84
2023/08/14 01:05:58;;;;;;;5.10;2.30;;;;;;;20.04;41.63;101199.22;5062813;28;20040;-84
2023/08/14 01:08:26;;;;;;;4.53;1.90;;;;;;;20.02;41.85;101193.00;5052308;28;20419;-85
2023/08/14 01:11:01;;;;;;;4.10;2.13;;;;;;;20.04;41.87;101192.84;5061876;28;20059;-85
2023/08/14 01:13:41;;;;;;;5.53;2.53;;;;;;;20.00;42.29;101195.97;5055225;28;20045;-86
2023/08/14 01:16:13;;;;;;;5.65;2.30;;;;;;;19.98;41.82;101189.75;5055583;28;20139;-86
2023/08/14 01:18:46;;;;;;;3.80;2.30;;;;;;;19.95;42.09;101186.50;5061826;28;20036;-86
2023/08/14 01:21:28;;;;;;;5.38;2.47;;;;;;;19.94;42.45;101191.19;5056742;28;20675;-86
2023/08/14 01:24:05;;;;;;;4.82;2.08;;;;;;;19.91;42.44;101187.91;5079794;28;20055;-86
2023/08/14 01:26:35;;;;;;;3.95;2.30;;;;;;;19.90;41.86;101184.22;5060548;28;20040;-85
2023/08/14 01:29:04;;;;;;;3.83;1.85;;;;;;;19.88;42.01;101188.22;5058543;28;20036;-85
2023/08/14 01:31:32;;;;;;;4.82;2.15;;;;;;;19.87;41.93;101172.66;5060807;28;20499;-85
2023/08/14 01:34:01;;;;;;;4.05;2.05;;;;;;;19.84;42.29;101171.09;5073137;28;20517;-85
2023/08/14 01:36:36;;;;;;;6.00;2.33;;;;;;;19.86;42.25;101177.34;5063640;28;20047;-86
2023/08/14 01:39:08;;;;;;;4.18;2.00;;;;;;;19.82;41.95;101167.63;5049575;28;20043;-86
2023/08/14 01:41:44;;;;;;;4.28;2.08;;;;;;;19.82;42.75;101169.53;5070577;28;20096;-86
2023/08/14 01:44:15;;;;;;;4.63;2.05;;;;;;;19.79;42.23;101167.16;5067622;28;20492;-84
2023/08/14 01:46:45;;;;;;;3.53;2.15;;;;;;;19.76;42.12;101161.97;5052843;28;20056;-83
2023/08/14 01:49:17;;;;;;;4.55;2.40;;;;;;;19.76;42.23;101161.97;5073126;28;20043;-85
2023/08/14 01:51:47;;;;;;;4.13;2.33;;;;;;;19.71;42.26;101145.03;5080668;28;20047;-84
2023/08/14 01:54:15;;;;;;;4.20;2.22;;;;;;;19.70;42.09;101137.75;5063166;28;20114;-84
2023/08/14 01:59:44;;;;;;;3.53;2.00;;;;;;;19.65;41.98;101141.91;5064806;28;20032;-83
2023/08/14 02:02:14;;;;;;;5.68;2.65;;;;;;;19.64;42.28;101145.75;5067823;28;20040;-83
2023/08/14 02:04:43;;;;;;;3.95;2.10;;;;;;;19.61;42.37;101137.81;5070158;28;20048;-83
2023/08/14 02:07:11;;;;;;;3.75;2.25;;;;;;;19.61;42.54;101137.81;5058714;28;20041;-82
2023/08/14 02:09:39;;;;;;;3.78;2.00;;;;;;;19.60;42.85;101127.75;5057885;28;20040;-83
2023/08/14 02:12:09;;;;;;;4.25;2.22;;;;;;;19.60;42.48;101138.84;5056922;28;20052;-83
2023/08/14 02:14:37;;;;;;;4.28;2.10;;;;;;;19.57;42.54;101132.81;5060818;28;20055;-82
2023/08/14 02:17:05;;;;;;;3.67;2.08;;;;;;;19.57;42.15;101130.03;5051006;28;20528;-83
2023/08/14 02:19:33;;;;;;;4.15;2.42;;;;;;;19.56;42.06;101128.28;5057306;28;20059;-83
2023/08/14 02:22:01;;;;;;;5.38;2.25;;;;;;;19.55;42.51;101123.78;5054197;28;20045;-82
2023/08/14 02:24:29;;;;;;;3.20;2.38;;;;;;;19.53;42.33;101123.13;5060557;28;20094;-85
2023/08/14 02:26:57;;;;;;;5.00;2.25;;;;;;;19.53;42.51;101125.91;5066992;28;20083;-84
2023/08/14 02:29:26;;;;;;;4.35;2.30;;;;;;;19.53;42.34;101125.91;5055688;28;20131;-85
2023/08/14 02:31:54;;;;;;;3.80;2.20;;;;;;;19.47;42.30;101121.94;5055739;28;20581;-85
2023/08/14 02:34:33;;;;;;;6.88;2.20;;;;;;;19.48;42.79;101117.25;5059966;28;20129;-82
2023/08/14 02:37:01;;;;;;;4.88;2.20;;;;;;;19.41;42.44;101119.94;5059692;28;20137;-83
2023/08/14 02:39:29;;;;;;;3.55;2.03;;;;;;;19.41;42.05;101121.84;5052560;28;20525;-83
2023/08/14 02:41:57;;;;;;;2.75;2.03;;;;;;;19.41;42.02;101124.63;5062070;28;20107;-82
2023/08/14 02:44:26;;;;;;;4.22;2.20;;;;;;;19.40;42.57;101120.09;5064104;28;20044;-84
2023/08/14 02:46:55;;;;;;;4.43;1.90;;;;;;;19.38;42.55;101113.91;5064065;28;20048;-83
2023/08/14 02:49:23;;;;;;;4.68;2.47;;;;;;;19.37;42.66;101113.03;5053747;28;20040;-84
2023/08/14 02:51:52;;;;;;;4.45;2.47;;;;;;;19.38;42.76;101113.91;5050486;28;20083;-85
2023/08/14 02:54:19;;;;;;;6.38;2.30;;;;;;;19.37;42.57;101112.16;5057598;28;20048;-83
2023/08/14 02:56:48;;;;;;;4.85;2.10;;;;;;;19.36;42.46;101116.00;5076698;28;20057;-83
2023/08/14 02:59:19;;;;;;;5.05;2.20;;;;;;;19.34;42.83;101107.84;5061749;28;20082;-83
2023/08/14 03:01:48;;;;;;;5.38;2.08;;;;;;;19.36;42.88;101111.31;5075326;28;20127;-84
2023/08/14 03:04:17;;;;;;;4.18;2.05;;;;;;;19.33;42.66;101110.81;5060558;28;20051;-83
2023/08/14 03:06:45;;;;;;;4.57;2.05;;;;;;;19.32;42.48;101109.06;5059124;28;20040;-83
2023/08/14 03:09:13;;;;;;;5.10;2.40;;;;;;;19.32;42.90;101107.16;5056522;28;20043;-83
2023/08/14 03:11:41;;;;;;;3.83;1.92;;;;;;;19.30;42.43;101105.59;5069914;28;20562;-84
2023/08/14 03:14:09;;;;;;;6.78;2.40;;;;;;;19.29;42.33;101109.47;5068862;28;20564;-84
2023/08/14 03:16:36;;;;;;;5.45;2.40;;;;;;;19.27;42.80;101107.72;5071219;28;20040;-82
2023/08/14 03:19:06;;;;;;;5.10;2.22;;;;;;;19.29;42.53;101106.69;5058248;28;20055;-84
2023/08/14 03:21:34;;;;;;;6.00;2.63;;;;;;;19.26;43.03;101110.69;5062117;28;20052;-83
2023/08/14 03:24:03;;;;;;;5.28;2.30;;;;;;;19.25;42.87;101104.28;5069392;28;20157;-83
2023/08/14 03:26:34;;;;;;;4.18;2.35;;;;;;;19.24;42.42;101110.88;5060478;28;20128;-84
2023/08/14 03:29:02;;;;;;;4.80;2.10;;;;;;;19.23;42.70;101106.38;5061258;28;20098;-83
2023/08/14 03:31:31;;;;;;;4.80;2.10;;;;;;;19.23;42.72;101106.38;5069595;28;20458;-84
2023/08/14 03:34:01;;;;;;;5.18;2.13;;;;;;;19.21;42.60;101114.00;5069728;28;20093;-84
2023/08/14 03:36:32;;;;;;;3.45;2.10;;;;;;;19.23;42.61;101120.22;5077186;28;20047;-84
2023/08/14 03:39:01;;;;;;;4.07;2.25;;;;;;;19.21;42.85;101114.00;5063505;28;20104;-82
2023/08/14 03:41:29;;;;;;;4.47;2.30;;;;;;;19.21;42.87;101118.72;5051188;28;20033;-82
2023/08/14 03:44:00;;;;;;;6.35;2.40;;;;;;;19.19;42.24;101116.09;5061017;28;20040;-85
2023/08/14 03:46:28;;;;;;;6.53;2.55;;;;;;;19.18;42.32;101121.81;5057022;28;20082;-84
2023/08/14 03:48:57;;;;;;;6.32;2.45;;;;;;;19.18;42.27;101119.03;5058372;28;20063;-82
2023/08/14 03:51:25;;;;;;;4.82;2.20;;;;;;;19.16;42.32;101113.66;5055662;28;20122;-83
2023/08/14 03:53:54;;;;;;;5.03;2.35;;;;;;;19.17;42.55;101120.09;5064616;28;20043;-83
2023/08/14 03:56:22;;;;;;;5.60;2.40;;;;;;;19.13;42.50;101119.56;5062462;28;20489;-82
2023/08/14 03:58:50;;;;;;;5.50;2.40;;;;;;;19.11;42.74;101115.28;5064097;28;20064;-83
2023/08/14 04:01:18;;;;;;;3.53;2.20;;;;;;;19.07;42.67;101111.13;5063642;28;20044;-83
2023/08/14 04:03:46;;;;;;;5.55;2.63;;;;;;;19.03;42.83;101107.00;5060484;28;20416;-82
2023/08/14 04:06:14;;;;;;;5.25;2.70;;;;;;;18.99;42.75;101103.72;5063775;28;20048;-83
2023/08/14 04:08:42;;;;;;;4.90;2.22;;;;;;;18.96;43.01;101098.56;5061946;28;20032;-82
2023/08/14 04:11:12;;;;;;;4.80;2.60;;;;;;;18.97;42.82;101100.28;5070809;28;20047;-83
2023/08/14 04:13:40;;;;;;;4.75;2.67;;;;;;;18.93;42.95;101092.50;5046621;28;20041;-83
2023/08/14 04:16:08;;;;;;;4.15;2.40;;;;;;;18.90;42.88;101104.81;5059837;28;20041;-83
2023/08/14 04:18:37;;;;;;;5.80;2.40;;;;;;;18.89;43.10;101101.19;5059900;28;20056;-83
2023/08/14 04:21:05;;;;;;;4.82;2.53;;;;;;;18.86;42.87;101098.81;5059506;28;20118;-82
2023/08/14 04:23:34;;;;;;;3.63;2.38;;;;;;;18.84;42.89;101103.66;5058758;28;20048;-82
2023/08/14 04:26:02;;;;;;;6.05;2.60;;;;;;;18.83;42.84;101101.06;5072984;28;20427;-82
2023/08/14 04:28:35;;;;;;;4.95;2.90;;;;;;;18.82;43.05;101102.97;5061491;28;20056;-84
2023/08/14 04:31:03;;;;;;;3.78;2.28;;;;;;;18.79;43.49;101114.44;5059860;28;20080;-83
2023/08/14 04:33:32;;;;;;;4.32;2.60;;;;;;;18.78;43.47;101112.72;5066609;28;20041;-83
2023/08/14 04:36:04;;;;;;;4.80;2.60;;;;;;;18.76;43.42;101112.03;5061277;28;20044;-84
2023/08/14 04:38:38;;;;;;;4.70;2.42;;;;;;;18.80;43.37;101107.00;5057479;28;20032;-84
2023/08/14 04:41:06;;;;;;;5.15;2.58;;;;;;;18.76;43.48;101100.94;5054739;28;20053;-83
2023/08/14 04:43:36;;;;;;;6.05;2.75;;;;;;;18.78;43.13;101104.41;5059253;28;20411;-83
2023/08/14 04:46:10;;;;;;;4.75;2.58;;;;;;;18.78;43.06;101107.16;5060710;28;20051;-83
2023/08/14 04:48:39;;;;;;;5.60;2.63;;;;;;;18.71;43.28;101102.53;5063720;28;20052;-83
2023/08/14 04:51:07;;;;;;;4.53;2.38;;;;;;;18.70;43.54;101085.03;5059384;28;20120;-84
2023/08/14 04:53:35;;;;;;;4.07;2.30;;;;;;;18.70;43.46;101098.03;5059834;28;20033;-84
2023/08/14 04:56:04;;;;;;;5.25;2.53;;;;;;;18.67;43.56;101088.16;5056780;28;20036;-84
2023/08/14 04:58:32;;;;;;;4.05;2.58;;;;;;;18.65;43.47;101084.69;5060326;28;20091;-83
2023/08/14 05:01:02;;;;;;;3.85;2.50;;;;;;;18.65;43.49;101092.16;5062109;28;20094;-83
2023/08/14 05:03:30;;;;;;;5.65;2.60;;;;;;;18.62;43.74;101092.53;5058935;28;20142;-83
2023/08/14 05:05:58;;;;;;;4.93;2.63;;;;;;;18.61;43.52;101085.25;5060878;28;20044;-83
2023/08/14 05:08:29;;;;;;;5.15;2.92;;;;;;;18.58;44.00;101093.94;5057399;28;20040;-83
2023/08/14 05:11:06;;;;;;;6.00;2.92;;;;;;;18.59;43.82;101095.66;5062095;28;20048;-84
2023/08/14 05:13:44;;;;;;;6.30;2.75;;;;;;;18.55;43.84;101084.09;5052536;28;20080;-84
2023/08/14 05:16:15;;;;;;;5.57;2.92;;;;;;;18.54;43.49;101079.59;5052331;28;20051;-83
2023/08/14 05:18:43;;;;;;;6.57;2.75;;;;;;;18.52;44.10;101076.13;5055194;28;20484;-82
2023/08/14 05:21:12;;;;;;;4.65;2.50;;;;;;;18.50;43.81;101081.84;5052280;28;20048;-84
2023/08/14 05:23:41;;;;;;;5.10;2.83;;;;;;;18.50;43.80;101083.75;5051161;28;20064;-84
2023/08/14 05:26:09;;;;;;;4.85;2.88;;;;;;;18.49;43.99;101076.47;5055910;28;20101;-84
2023/08/14 05:28:37;;;;;;;5.65;2.47;;;;;;;18.50;44.03;101081.84;5052356;28;20060;-83
2023/08/14 05:31:07;;;;;;;5.45;2.75;;;;;;;18.53;44.04;101086.16;5051886;28;20124;-84
2023/08/14 05:33:36;;;;;;;5.57;2.60;;;;;;;18.55;44.59;101091.53;5051071;28;20488;-84
2023/08/14 05:36:05;;;;;;;4.35;2.33;;;;;;;18.54;44.54;101100.88;5055334;28;20147;-83
2023/08/14 05:38:33;;;;;;;5.35;3.00;;;;;;;18.57;44.96;101103.28;5051427;28;20059;-82
2023/08/14 05:41:01;;;;;;;5.38;2.50;;;;;;;18.60;44.87;101097.38;5052798;28;20052;-83
2023/08/14 05:43:30;;;;;;;4.03;2.60;;;;;;;18.64;45.22;101087.66;5054390;28;20063;-83
2023/08/14 05:45:59;;;;;;;4.55;2.63;;;;;;;18.67;44.74;101079.84;5055572;28;20044;-84
2023/08/14 05:48:27;;;;;;;5.80;2.45;;;;;;;18.73;44.74;101086.56;5051693;28;20461;-83
2023/08/14 05:50:56;;;;;;;4.22;2.60;;;;;;;18.79;44.79;101086.72;5052799;28;20491;-83
2023/08/14 05:53:26;;;;;;;4.80;2.67;;;;;;;18.80;44.70;101084.81;5049836;28;20404;-83
2023/08/14 05:55:54;;;;;;;4.78;2.80;;;;;;;18.84;44.69;101084.25;5060701;28;20595;-82
2023/08/14 05:58:22;;;;;;;3.53;2.47;;;;;;;18.86;44.71;101079.38;5050442;28;20990;-83
2023/08/14 06:00:50;;;;;;;4.63;2.70;;;;;;;18.88;44.79;101085.59;5055973;28;20048;-83
2023/08/14 06:03:19;;;;;;;4.88;3.08;;;;;;;18.92;44.23;101085.25;5063832;28;20052;-84
2023/08/14 06:06:08;;;;;;;5.30;3.15;;;;;;;18.94;44.61;101077.59;5056596;28;20241;-86
2023/08/14 06:08:36;;;;;;;5.53;2.90;;;;;;;18.94;44.30;101084.00;5060509;28;20052;-84
2023/08/14 06:11:05;;;;;;;6.00;2.97;;;;;;;18.97;44.62;101074.44;5061429;28;20032;-85
2023/08/14 06:13:33;;;;;;;6.78;2.90;;;;;;;19.00;44.90;101083.28;5073607;28;20078;-85
2023/08/14 06:16:02;;;;;;;5.30;2.60;;;;;;;19.03;44.55;101079.28;5057674;28;20108;-84
2023/08/14 06:18:30;;;;;;;6.20;2.67;;;;;;;19.05;44.59;101079.97;5055624;28;20384;-83
2023/08/14 06:20:58;;;;;;;4.28;2.45;;;;;;;19.08;44.76;101077.66;5059036;28;20045;-85
2023/08/14 06:23:28;;;;;;;6.13;2.55;;;;;;;19.12;44.48;101095.69;5061644;28;20167;-84
2023/08/14 06:25:58;;;;;;;4.22;2.50;;;;;;;19.13;44.16;101093.78;5066303;28;20116;-85
2023/08/14 06:28:26;;;;;;;4.82;2.70;;;;;;;19.15;44.55;101095.28;5058470;28;20136;-87
2023/08/14 06:30:54;;;;;;;4.32;2.58;;;;;;;19.17;44.38;101095.13;5057008;28;20279;-85
2023/08/14 06:33:23;;;;;;;5.28;2.60;;;;;;;19.19;44.77;101087.47;5062909;28;20145;-85
2023/08/14 06:35:51;;;;;;;5.68;2.60;;;;;;;19.20;44.13;101080.88;5062310;28;20040;-85
2023/08/14 06:38:19;;;;;;;5.80;2.67;;;;;;;19.21;44.35;101086.25;5052347;28;20056;-85
2023/08/14 06:40:49;;;;;;;5.13;2.75;;;;;;;19.25;44.33;101089.53;5061827;28;20071;-86
2023/08/14 06:43:17;;;;;;;7.18;3.22;;;;;;;19.24;44.77;101085.91;5049778;28;20143;-85
2023/08/14 06:45:47;;;;;;;5.95;3.10;;;;;;;19.28;44.26;101097.50;5069777;28;20041;-84
2023/08/14 06:48:15;;;;;;;5.05;2.45;;;;;;;19.30;44.37;101100.94;5061730;28;20040;-84
2023/08/14 06:50:43;;;;;;;4.30;2.53;;;;;;;19.32;44.44;101098.84;5070776;28;20114;-85
2023/08/14 06:53:11;;;;;;;5.28;2.45;;;;;;;19.36;45.08;101100.22;5068458;28;20044;-86
2023/08/14 06:59:13;;;;;;;;;;;;;;;19.13;45.58;101099.31;4983019;28;20089;-85
2023/08/14 07:02:06;;;;;;;7.68;3.08;;;;;;;19.50;44.64;101104.94;5036203;28;19928;-87
2023/08/14 07:04:38;;;;;;;5.22;2.58;;;;;;;19.56;44.69;101108.84;5074274;28;20040;-86
2023/08/14 07:07:06;;;;;;;4.38;2.55;;;;;;;19.65;44.77;101113.28;5068114;28;20100;-85
2023/08/14 07:09:34;;;;;;;5.78;2.60;;;;;;;19.72;44.70;101096.72;5066652;28;20119;-84
2023/08/14 07:12:05;;;;;;;7.07;3.10;;;;;;;19.81;44.57;101084.50;5059564;28;20451;-86
2023/08/14 07:14:33;;;;;;;5.55;2.85;;;;;;;19.87;44.67;101084.59;5070167;28;20711;-85
2023/08/14 07:17:02;;;;;;;4.63;2.78;;;;;;;19.92;43.94;101084.94;5056535;28;20044;-84
2023/08/14 07:19:31;;;;;;;5.18;2.45;;;;;;;19.99;44.03;101085.03;5066194;28;20060;-84
2023/08/14 07:22:00;;;;;;;6.43;2.72;;;;;;;20.05;43.82;101078.72;5061730;28;20076;-85
2023/08/14 07:24:29;;;;;;;5.22;2.55;;;;;;;20.11;44.07;101082.66;5060530;28;20048;-85
2023/08/14 07:26:58;;;;;;;4.90;2.75;;;;;;;20.13;43.83;101075.84;5056369;28;20037;-85
2023/08/14 07:29:28;;;;;;;4.22;2.30;;;;;;;20.19;43.59;101072.31;5058546;28;20071;-87
2023/08/14 07:31:57;;;;;;;4.13;2.30;;;;;;;20.19;43.69;101091.75;5062474;28;20052;-86
2023/08/14 07:34:27;;;;;;;4.70;2.40;;;;;;;20.22;43.53;101096.91;5065827;28;20047;-86
2023/08/14 07:36:55;;;;;;;3.92;2.00;;;;;;;20.24;43.70;101077.28;5066709;28;20122;-86
2023/08/14 07:39:23;;;;;;;5.55;2.70;;;;;;;20.27;43.50;101071.34;5059850;28;20036;-85
2023/08/14 07:41:52;;;;;;;4.07;2.20;;;;;;;20.30;43.73;101066.25;5070371;28;20037;-85
2023/08/14 07:44:20;;;;;;;5.43;2.30;;;;;;;20.34;43.46;101064.81;5061059;28;20102;-84
2023/08/14 07:46:49;;;;;;;4.05;2.10;;;;;;;20.39;43.14;101065.09;5063162;28;21166;-85
2023/08/14 07:49:18;;;;;;;4.60;2.55;;;;;;;20.42;43.31;101054.63;5059639;28;20053;-84
2023/08/14 07:51:46;;;;;;;4.50;2.47;;;;;;;20.46;43.17;101054.03;5049073;28;20124;-85
2023/08/14 07:54:16;;;;;;;5.57;2.30;;;;;;;20.51;43.02;101065.47;5061896;28;20045;-85
2023/08/14 07:56:44;;;;;;;5.25;2.50;;;;;;;20.55;43.21;101061.22;5055038;28;20041;-85
2023/08/14 07:59:17;;;;;;;5.25;2.25;;;;;;;20.61;43.01;101074.38;5063822;28;20044;-85
2023/08/14 08:01:48;;;;;;;4.57;2.50;;;;;;;20.63;42.90;101088.94;5049528;28;20047;-85
2023/08/14 08:04:18;;;;;;;5.70;2.43;;;;;;;20.68;43.04;101088.38;5055831;28;20044;-84
2023/08/14 08:06:50;;;;;;;4.82;2.25;;;;;;;20.73;43.25;101085.84;5056619;28;20326;-84
2023/08/14 08:09:18;;;;;;;3.85;2.08;;;;;;;20.77;43.19;101093.63;5049626;28;20045;-85
2023/08/14 08:11:46;;;;;;;4.10;2.30;;;;;;;20.82;43.13;101094.94;5060000;28;20131;-86
2023/08/14 08:14:17;;;;;;;5.45;2.40;;;;;;;20.88;43.09;101103.38;5071089;28;20040;-87
2023/08/14 08:16:45;;;;;;;5.10;2.33;;;;;;;20.92;42.92;101085.25;5056524;28;20053;-86
2023/08/14 08:19:13;;;;;;;4.38;2.30;;;;;;;20.99;42.84;101074.19;5060318;28;20040;-86
2023/08/14 08:21:42;;;;;;;3.97;2.10;;;;;;;21.06;42.63;101070.41;5065185;28;20048;-85
2023/08/14 08:24:14;;;;;;;4.20;2.08;;;;;;;21.11;42.90;101079.00;5061883;28;20072;-86
2023/08/14 08:26:46;;;;;;;3.72;2.38;;;;;;;21.17;42.98;101080.16;5065665;28;20119;-83
2023/08/14 08:29:14;;;;;;;4.03;2.05;;;;;;;21.25;43.08;101079.16;5067954;28;20036;-85
2023/08/14 08:31:43;;;;;;;4.90;2.00;;;;;;;21.35;42.85;101079.72;5061385;28;20683;-84
2023/08/14 08:34:11;;;;;;;4.03;1.83;;;;;;;21.43;42.88;101088.78;5067369;28;20036;-85
2023/08/14 08:36:40;;;;;;;4.45;1.95;;;;;;;21.53;42.99;101097.66;5054333;28;20037;-85
2023/08/14 08:39:10;;;;;;;3.33;1.70;;;;;;;21.67;43.07;101092.22;5061533;28;20045;-85
2023/08/14 08:41:41;;;;;;;5.00;2.20;;;;;;;21.80;42.54;101083.94;5071090;28;20053;-86
2023/08/14 08:44:18;;;;;;;4.50;2.00;;;;;;;21.88;42.26;101079.06;5081697;28;20037;-86
2023/08/14 08:46:51;;;;;;;3.67;2.05;;;;;;;22.04;42.24;101085.44;5055775;28;20051;-86
2023/08/14 08:49:19;;;;;;;3.63;1.80;;;;;;;22.15;42.44;101082.94;5054375;28;20048;-85
2023/08/14 08:51:52;;;;;;;4.07;1.70;;;;;;;22.30;42.10;101080.00;5052524;28;20037;-89
2023/08/14 08:54:21;;;;;;;;;;;;;;;22.08;42.76;101073.69;5059744;28;20048;-85
2023/08/14 08:56:50;;;;;;;2.92;1.58;;;;;;;22.49;42.31;101084.84;5054247;28;19924;-87
2023/08/14 08:59:20;;;;;;;3.50;1.50;;;;;;;22.67;41.47;101097.41;5049779;28;20047;-86
2023/08/14 09:01:50;;;;;;;4.22;1.58;;;;;;;22.77;40.79;101089.47;5063327;28;20037;-88
2023/08/14 09:04:25;;;;;;;4.15;1.67;;;;;;;22.89;39.74;101088.69;5069732;28;20059;-86
2023/08/14 09:06:54;;;;;;;2.78;1.40;;;;;;;22.96;40.10;101094.28;5050628;28;20063;-86
2023/08/14 09:09:24;;;;;;;4.13;1.70;;;;;;;23.06;40.14;101096.66;5063779;28;20075;-87
2023/08/14 09:11:52;;;;;;;3.20;1.67;;;;;;;23.12;39.71;101093.88;5052380;28;20044;-88
2023/08/14 09:14:23;;;;;;;4.95;2.10;;;;;;;23.22;39.52;101088.78;5069512;28;20044;-88
2023/08/14 09:16:54;;;;;;;3.35;1.70;;;;;;;23.29;39.24;101091.59;5061439;28;20040;-87
2023/08/14 09:19:22;;;;;;;3.83;1.50;;;;;;;23.35;39.24;101088.78;5063477;28;20063;-88
2023/08/14 09:21:58;;;;;;;3.53;1.65;;;;;;;23.43;39.21;101090.53;5078959;28;20131;-87
2023/08/14 09:24:33;;;;;;;2.95;1.58;;;;;;;23.53;38.59;101082.56;5052657;28;20037;-87
2023/08/14 09:27:01;;;;;;;3.45;1.52;;;;;;;23.59;38.53;101084.50;5064660;28;20044;-87
2023/08/14 09:29:32;;;;;;;3.65;1.63;;;;;;;23.69;38.03;101081.28;5063139;28;20028;-88
2023/08/14 09:32:02;;;;;;;5.25;1.63;;;;;;;23.75;37.84;101077.63;5057072;28;20052;-86
2023/08/14 09:34:31;;;;;;;3.20;1.60;;;;;;;23.79;37.83;101076.16;5072022;28;20120;-88
2023/08/14 09:37:04;;;;;;;4.55;1.73;;;;;;;23.86;37.71;101071.41;5060689;28;20040;-87
2023/08/14 09:39:36;;;;;;;3.42;1.95;;;;;;;23.96;37.02;101080.22;5060665;28;20044;-87
2023/08/14 09:42:05;;;;;;;3.15;1.52;;;;;;;24.00;37.22;101067.50;5051210;28;20048;-86
2023/08/14 09:44:36;;;;;;;4.03;1.80;;;;;;;24.08;36.71;101064.47;5063885;28;20526;-85
2023/08/14 09:47:06;;;;;;;3.58;1.90;;;;;;;24.13;36.62;101067.50;5055700;28;20059;-86
2023/08/14 09:49:35;;;;;;;3.20;1.45;;;;;;;24.17;36.88;101061.44;5045415;28;20041;-87
2023/08/14 09:52:11;;;;;;;4.15;2.03;;;;;;;24.25;36.16;101058.41;5052833;28;20051;-87
2023/08/14 09:54:41;;;;;;;3.55;1.80;;;;;;;24.29;36.38;101051.31;5054556;28;20041;-87
2023/08/14 09:57:10;;;;;;;4.22;1.70;;;;;;;24.33;36.32;101044.19;5057009;28;20309;-88
2023/08/14 09:59:40;;;;;;;3.83;1.70;;;;;;;24.39;36.29;101035.84;5061519;28;20536;-84
2023/08/14 10:02:13;;;;;;;4.72;2.08;;;;;;;24.47;34.94;101040.31;5047062;28;20040;-86
2023/08/14 10:04:44;;;;;;;3.85;1.60;;;;;;;24.48;35.63;101042.88;5046109;28;20045;-84
2023/08/14 10:07:14;;;;;;;2.85;1.50;;;;;;;24.55;35.39;101042.88;5054922;28;20143;-85
2023/08/14 10:09:46;;;;;;;3.20;1.70;;;;;;;24.61;34.90;101046.69;5062850;28;20106;-86
2023/08/14 10:12:50;;;;;;;3.65;1.90;;;;;;;24.61;34.78;101039.16;5060226;28;20037;-86
2023/08/14 10:15:26;;;;;;;3.78;1.80;;;;;;;24.66;34.87;101036.53;5056637;28;20136;-86
2023/08/14 10:17:58;;;;;;;3.80;1.80;;;;;;;24.69;34.78;101030.50;5047459;28;20095;-85
2023/08/14 10:20:46;;;;;;;3.53;1.75;;;;;;;24.71;34.74;101031.16;5058594;28;20040;-87
2023/08/14 10:23:21;;;;;;;3.72;1.70;;;;;;;24.72;34.82;101030.06;5059319;28;20044;-88
2023/08/14 10:25:52;;;;;;;4.63;1.80;;;;;;;24.76;34.54;101041.66;5055188;28;20550;-88
2023/08/14 10:28:21;;;;;;;4.28;1.50;;;;;;;24.76;34.51;101038.88;5065602;28;20040;-87
2023/08/14 10:30:49;;;;;;;3.38;1.55;;;;;;;24.76;34.38;101031.34;5062774;28;20056;-86
2023/08/14 10:33:18;;;;;;;3.88;1.80;;;;;;;24.77;34.44;101033.06;5067852;28;20376;-88
2023/08/14 10:35:53;;;;;;;3.65;1.75;;;;;;;24.80;34.06;101031.75;5059462;28;20059;-87
2023/08/14 10:38:22;;;;;;;3.60;1.60;;;;;;;24.76;34.51;101045.31;5064296;28;20045;-87
2023/08/14 10:40:56;;;;;;;4.10;1.85;;;;;;;24.79;34.05;101041.22;5071671;28;20062;-85
2023/08/14 10:43:29;;;;;;;3.63;1.65;;;;;;;24.74;34.07;101036.28;5071409;28;20056;-86
2023/08/14 10:45:57;;;;;;;3.92;2.25;;;;;;;24.73;34.09;101040.16;5061125;28;20366;-86
2023/08/14 10:48:25;;;;;;;2.60;1.60;;;;;;;24.72;34.43;101038.47;5061300;28;20036;-89
2023/08/14 10:51:01;;;;;;;5.15;1.80;;;;;;;24.73;33.78;101037.38;5065492;28;20032;-87
2023/08/14 10:53:30;;;;;;;4.05;1.75;;;;;;;24.72;34.32;101030.06;5059856;28;20131;-87
2023/08/14 10:56:00;;;;;;;4.00;1.75;;;;;;;24.77;34.38;101040.59;5055132;28;20700;-87
2023/08/14 10:58:47;;;;;;;4.47;1.98;;;;;;;24.81;34.05;101028.69;5064090;28;20052;-87
2023/08/14 11:01:26;;;;;;;6.22;1.88;;;;;;;24.87;34.26;101029.78;5059283;28;20048;-87
2023/08/14 11:04:10;;;;;;;3.80;1.85;;;;;;;24.93;34.48;101028.00;5066076;28;20048;-87
2023/08/14 11:07:11;;;;;;;4.40;1.70;;;;;;;24.98;34.46;101023.47;5051827;28;20048;-87
2023/08/14 11:09:40;;;;;;;3.80;1.85;;;;;;;25.06;35.57;101022.38;5061001;28;20113;-87
2023/08/14 11:12:11;;;;;;;3.63;1.60;;;;;;;25.16;34.99;101023.56;5055702;28;20424;-87
2023/08/14 11:14:41;;;;;;;3.20;1.80;;;;;;;25.23;35.02;101024.34;5059163;28;20071;-85
2023/08/14 11:17:11;;;;;;;4.25;2.00;;;;;;;25.33;34.42;101029.47;5053138;28;20075;-86
2023/08/14 11:19:39;;;;;;;4.60;1.80;;;;;;;25.42;34.52;101022.50;5062299;28;20047;-85
2023/08/14 11:22:08;;;;;;;3.80;1.80;;;;;;;25.50;33.82;101024.16;5059443;28;20040;-84
2023/08/14 11:24:37;;;;;;;4.47;1.90;;;;;;;25.58;33.95;101027.56;5052485;28;20052;-84
2023/08/14 11:27:06;;;;;;;3.72;1.60;;;;;;;25.68;33.97;101035.44;5064396;28;20067;-84
2023/08/14 11:29:36;;;;;;;4.63;1.70;;;;;;;25.79;33.80;101028.22;5068485;28;20499;-84
2023/08/14 11:32:19;;;;;;;4.18;2.28;;;;;;;25.85;33.40;101027.31;5054691;28;20068;-83
2023/08/14 11:34:50;;;;;;;3.38;1.83;;;;;;;25.93;33.67;101027.00;5060661;28;20044;-84
2023/08/14 11:37:18;;;;;;;4.55;2.03;;;;;;;25.99;33.28;101021.31;5068137;28;20051;-84
2023/08/14 11:39:47;;;;;;;3.65;1.80;;;;;;;26.07;33.07;101016.50;5061090;28;20546;-83
2023/08/14 11:42:17;;;;;;;3.92;1.80;;;;;;;26.13;32.89;101022.06;5053570;28;20421;-85
2023/08/14 11:44:48;;;;;;;3.70;1.80;;;;;;;26.20;33.13;101019.19;5063286;28;20049;-85
2023/08/14 11:47:17;;;;;;;5.03;2.13;;;;;;;26.25;32.59;101028.59;5062132;28;20040;-84